Check out our new PWSWeather beta!
PWSweather.com
Personal Weather Stations
Station Observations
KCOBLACK1
Chalet Park, Black Hawk, CO 80422

Chalet ParkBlack Hawk, CO 80422

Lat: 39.8294, Lon: -105.48

Elevation: 9370

Station Type: Vantage Pro2

http://www.oscaranddeb.com/weather

Latest ConditionsUpdated 11:15:00 AM MST Monday, Feb 24, 2020
Currently Today's Max Today's Min Today's Average
Temperature 16.2°F-8.8°C 26.9°F-2.8°C 12.7°F-10.7°C 21.3°F-5.9°C
Dew Point -1.4°F-18.6°C 14.0°F-10.0°C -1.4°F-18.6°C 9.7°F-12.4°C
Winds 11.0 mph 17.7 kmh 24.0 mph -38.6 kmh - - 10.1 mph 16.3 kmh
Wind Gusts 28.0 mph45.1 kmh 47.0 mph75.6 kmh - -
Humidity 45% 87% 45% 61%
Pressure 29.91 in1012.9 mb 29.94 in1013.9 mb 29.80 in1009.1 mb -
Hour Temp Dew Point Humidity Winds Wind Gusts Pressure Precip Precip Rate Daily Precip Total
11:15 AM 16.2°F-8.8°C -1.4°F-18.6°C 45% 11.0 mph 17.7 kmh 28.0 mph45.1 kmh 29.91 in1012.9 mb 0.00 in0.0 mm 0.00 in0.0 mm 0.01 in0.3 mm
11:10 AM 15.2°F-9.3°C -0.9°F-18.3°C 48% 18.0 mph 29.0 kmh 37.0 mph59.5 kmh 29.91 in1012.9 mb 0.00 in0.0 mm 0.00 in0.0 mm 0.01 in0.3 mm
11:05 AM 14.9°F-9.5°C -1.2°F-18.4°C 48% 21.0 mph NNW33.8 kmh NNW 37.0 mph59.5 kmh 29.91 in1012.9 mb 0.00 in0.0 mm 0.00 in0.0 mm 0.01 in0.3 mm
11:00 AM 14.8°F-9.6°C -1.3°F-18.5°C 48% 19.0 mph 30.6 kmh 38.0 mph61.2 kmh 29.91 in1012.9 mb 0.00 in0.0 mm 0.00 in0.0 mm 0.01 in0.3 mm
10:55 AM 15.1°F-9.4°C -0.6°F-18.1°C 49% 17.0 mph 27.4 kmh 35.0 mph56.3 kmh 29.92 in1013.2 mb 0.00 in0.0 mm 0.00 in0.0 mm 0.01 in0.3 mm
10:50 AM 14.8°F-9.6°C -0.9°F-18.3°C 49% 16.0 mph 25.7 kmh 37.0 mph59.5 kmh 29.92 in1013.2 mb 0.00 in0.0 mm 0.00 in0.0 mm 0.01 in0.3 mm
10:45 AM 15.0°F-9.4°C 0.2°F-17.7°C 51% 19.0 mph 30.6 kmh 40.0 mph64.4 kmh 29.92 in1013.2 mb 0.00 in0.0 mm 0.00 in0.0 mm 0.01 in0.3 mm
10:40 AM 15.1°F-9.4°C 0.7°F-17.4°C 52% 14.0 mph NNE22.5 kmh NNE 29.0 mph46.7 kmh 29.92 in1013.2 mb 0.00 in0.0 mm 0.00 in0.0 mm 0.01 in0.3 mm
10:35 AM 14.9°F-9.5°C 1.3°F-17.1°C 54% 17.0 mph 27.4 kmh 42.0 mph67.6 kmh 29.90 in1012.5 mb 0.00 in0.0 mm 0.00 in0.0 mm 0.01 in0.3 mm
10:30 AM 14.6°F-9.7°C 1.8°F-16.8°C 56% 18.0 mph NNW29.0 kmh NNW 41.0 mph66.0 kmh 29.88 in1011.9 mb 0.00 in0.0 mm 0.00 in0.0 mm 0.01 in0.3 mm
10:25 AM 14.3°F-9.8°C 3.3°F-15.9°C 61% 18.0 mph NNE29.0 kmh NNE 46.0 mph74.0 kmh 29.87 in1011.5 mb 0.00 in0.0 mm 0.00 in0.0 mm 0.01 in0.3 mm
10:20 AM 14.3°F-9.8°C 4.0°F-15.6°C 63% 23.0 mph 37.0 kmh 47.0 mph75.6 kmh 29.84 in1010.5 mb 0.00 in0.0 mm 0.00 in0.0 mm 0.01 in0.3 mm
10:15 AM 14.5°F-9.7°C 4.6°F-15.2°C 64% 20.0 mph NE32.2 kmh NE 42.0 mph67.6 kmh 29.86 in1011.2 mb 0.00 in0.0 mm 0.00 in0.0 mm 0.01 in0.3 mm
10:10 AM 14.7°F-9.6°C 5.4°F-14.8°C 66% 22.0 mph NW35.4 kmh NW 45.0 mph72.4 kmh 29.87 in1011.5 mb 0.00 in0.0 mm 0.00 in0.0 mm 0.01 in0.3 mm
10:05 AM 14.8°F-9.6°C 6.2°F-14.3°C 68% 17.0 mph NNW27.4 kmh NNW 33.0 mph53.1 kmh 29.89 in1012.2 mb 0.00 in0.0 mm 0.00 in0.0 mm 0.01 in0.3 mm
10:00 AM 14.7°F-9.6°C 7.3°F-13.7°C 72% 12.0 mph NNW19.3 kmh NNW 28.0 mph45.1 kmh 29.91 in1012.9 mb 0.00 in0.0 mm 0.00 in0.0 mm 0.01 in0.3 mm
09:55 AM 14.5°F-9.7°C 7.8°F-13.4°C 74% 14.0 mph 22.5 kmh 29.0 mph46.7 kmh 29.91 in1012.9 mb 0.00 in0.0 mm 0.00 in0.0 mm 0.01 in0.3 mm
09:50 AM 14.1°F-9.9°C 7.7°F-13.5°C 75% 17.0 mph NNW27.4 kmh NNW 32.0 mph51.5 kmh 29.92 in1013.2 mb 0.00 in0.0 mm 0.00 in0.0 mm 0.01 in0.3 mm
09:45 AM 14.3°F-9.8°C 8.7°F-12.9°C 78% 12.0 mph NNW19.3 kmh NNW 24.0 mph38.6 kmh 29.94 in1013.9 mb 0.00 in0.0 mm 0.00 in0.0 mm 0.01 in0.3 mm
09:40 AM 14.1°F-9.9°C 9.1°F-12.7°C 80% 5.0 mph 8.0 kmh 20.0 mph32.2 kmh 29.93 in1013.5 mb 0.00 in0.0 mm 0.00 in0.0 mm 0.01 in0.3 mm
09:35 AM 13.9°F-10.1°C 8.9°F-12.8°C 80% 10.0 mph 16.1 kmh 27.0 mph43.5 kmh 29.93 in1013.5 mb 0.00 in0.0 mm 0.00 in0.0 mm 0.01 in0.3 mm
09:30 AM 13.9°F-10.1°C 8.9°F-12.8°C 80% 11.0 mph NNW17.7 kmh NNW 30.0 mph48.3 kmh 29.92 in1013.2 mb 0.00 in0.0 mm 0.00 in0.0 mm 0.01 in0.3 mm
09:25 AM 13.8°F-10.1°C 9.3°F-12.6°C 82% 6.0 mph 9.7 kmh 16.0 mph25.7 kmh 29.91 in1012.9 mb 0.00 in0.0 mm 0.00 in0.0 mm 0.01 in0.3 mm
09:20 AM 13.5°F-10.3°C 9.3°F-12.6°C 83% 6.0 mph NNW9.7 kmh NNW 25.0 mph40.2 kmh 29.92 in1013.2 mb 0.00 in0.0 mm 0.00 in0.0 mm 0.01 in0.3 mm
09:15 AM 13.0°F-10.6°C 8.8°F-12.9°C 83% 7.0 mph 11.3 kmh 24.0 mph38.6 kmh 29.92 in1013.2 mb 0.00 in0.0 mm 0.00 in0.0 mm 0.01 in0.3 mm
09:10 AM 12.8°F-10.7°C 8.4°F-13.1°C 82% 16.0 mph NNW25.7 kmh NNW 33.0 mph53.1 kmh 29.91 in1012.9 mb 0.00 in0.0 mm 0.00 in0.0 mm 0.01 in0.3 mm
09:05 AM 12.7°F-10.7°C 8.5°F-13.1°C 83% 20.0 mph NNW32.2 kmh NNW 42.0 mph67.6 kmh 29.92 in1013.2 mb 0.00 in0.0 mm 0.00 in0.0 mm 0.01 in0.3 mm
09:00 AM 12.8°F-10.7°C 8.6°F-13.0°C 83% 13.0 mph 20.9 kmh 31.0 mph49.9 kmh 29.91 in1012.9 mb 0.00 in0.0 mm 0.00 in0.0 mm 0.01 in0.3 mm
08:55 AM 12.9°F-10.6°C 9.0°F-12.8°C 84% 10.0 mph NNW16.1 kmh NNW 30.0 mph48.3 kmh 29.90 in1012.5 mb 0.00 in0.0 mm 0.00 in0.0 mm 0.01 in0.3 mm
08:50 AM 13.0°F-10.6°C 9.1°F-12.7°C 84% 12.0 mph 19.3 kmh 27.0 mph43.5 kmh 29.90 in1012.5 mb 0.00 in0.0 mm 0.00 in0.0 mm 0.01 in0.3 mm
08:45 AM 13.0°F-10.6°C 9.1°F-12.7°C 84% 13.0 mph 20.9 kmh 32.0 mph51.5 kmh 29.89 in1012.2 mb 0.00 in0.0 mm 0.00 in0.0 mm 0.01 in0.3 mm
08:40 AM 13.2°F-10.4°C 9.3°F-12.6°C 84% 14.0 mph NNE22.5 kmh NNE 28.0 mph45.1 kmh 29.89 in1012.2 mb 0.00 in0.0 mm 0.00 in0.0 mm 0.01 in0.3 mm
08:35 AM 13.3°F-10.4°C 9.7°F-12.4°C 85% 16.0 mph NE25.7 kmh NE 38.0 mph61.2 kmh 29.89 in1012.2 mb 0.00 in0.0 mm 0.00 in0.0 mm 0.01 in0.3 mm
08:30 AM 13.1°F-10.5°C 9.7°F-12.4°C 86% 17.0 mph NE27.4 kmh NE 35.0 mph56.3 kmh 29.88 in1011.9 mb 0.00 in0.0 mm 0.00 in0.0 mm 0.01 in0.3 mm
08:25 AM 13.3°F-10.4°C 10.2°F-12.1°C 87% 16.0 mph NE25.7 kmh NE 33.0 mph53.1 kmh 29.88 in1011.9 mb 0.00 in0.0 mm 0.00 in0.0 mm 0.01 in0.3 mm
08:20 AM 13.6°F-10.2°C 10.2°F-12.1°C 86% 16.0 mph NE25.7 kmh NE 32.0 mph51.5 kmh 29.88 in1011.9 mb 0.00 in0.0 mm 0.00 in0.0 mm 0.01 in0.3 mm
08:15 AM 13.8°F-10.1°C 10.1°F-12.2°C 85% 20.0 mph NE32.2 kmh NE 43.0 mph69.2 kmh 29.89 in1012.2 mb 0.00 in0.0 mm 0.00 in0.0 mm 0.01 in0.3 mm
08:10 AM 13.9°F-10.1°C 10.5°F-11.9°C 86% 18.0 mph NE29.0 kmh NE 34.0 mph54.7 kmh 29.88 in1011.9 mb 0.00 in0.0 mm 0.00 in0.0 mm 0.01 in0.3 mm
08:05 AM 14.3°F-9.8°C 10.9°F-11.7°C 86% 17.0 mph NNE27.4 kmh NNE 38.0 mph61.2 kmh 29.88 in1011.9 mb 0.00 in0.0 mm 0.00 in0.0 mm 0.01 in0.3 mm
08:00 AM 14.9°F-9.5°C 11.5°F-11.4°C 86% 15.0 mph NE24.1 kmh NE 37.0 mph59.5 kmh 29.87 in1011.5 mb 0.00 in0.0 mm 0.00 in0.0 mm 0.01 in0.3 mm
07:55 AM 15.6°F-9.1°C 11.9°F-11.2°C 85% 15.0 mph NE24.1 kmh NE 38.0 mph61.2 kmh 29.88 in1011.9 mb 0.00 in0.0 mm 0.00 in0.0 mm 0.01 in0.3 mm
07:50 AM 17.1°F-8.3°C 12.8°F-10.7°C 83% 13.0 mph 20.9 kmh 29.0 mph46.7 kmh 29.87 in1011.5 mb 0.00 in0.0 mm 0.00 in0.0 mm 0.01 in0.3 mm
07:45 AM 19.7°F-6.8°C 13.7°F-10.2°C 77% 24.0 mph NE38.6 kmh NE 47.0 mph75.6 kmh 29.87 in1011.5 mb 0.00 in0.0 mm 0.00 in0.0 mm 0.01 in0.3 mm
07:40 AM 25.6°F-3.6°C 11.3°F-11.5°C 54% 11.0 mph 17.7 kmh 27.0 mph43.5 kmh 29.83 in1010.2 mb 0.00 in0.0 mm 0.00 in0.0 mm 0.01 in0.3 mm
07:35 AM 25.3°F-3.7°C 9.7°F-12.4°C 51% 14.0 mph NNW22.5 kmh NNW 37.0 mph59.5 kmh 29.80 in1009.1 mb 0.00 in0.0 mm 0.00 in0.0 mm 0.01 in0.3 mm
07:30 AM 24.6°F-4.1°C 10.4°F-12.0°C 54% 7.0 mph NNW11.3 kmh NNW 20.0 mph32.2 kmh 29.80 in1009.1 mb 0.00 in0.0 mm 0.00 in0.0 mm 0.01 in0.3 mm
07:25 AM 24.4°F-4.2°C 11.0°F-11.7°C 56% 11.0 mph NNW17.7 kmh NNW 28.0 mph45.1 kmh 29.81 in1009.5 mb 0.00 in0.0 mm 0.00 in0.0 mm 0.01 in0.3 mm
07:20 AM 24.2°F-4.3°C 12.0°F-11.1°C 59% 11.0 mph NNW17.7 kmh NNW 19.0 mph30.6 kmh 29.82 in1009.8 mb 0.00 in0.0 mm 0.00 in0.0 mm 0.01 in0.3 mm
07:15 AM 24.2°F-4.3°C 12.3°F-10.9°C 60% 12.0 mph NNW19.3 kmh NNW 22.0 mph35.4 kmh 29.82 in1009.8 mb 0.00 in0.0 mm 0.00 in0.0 mm 0.01 in0.3 mm
07:10 AM 23.9°F-4.5°C 12.1°F-11.1°C 60% 9.0 mph NNW14.5 kmh NNW 17.0 mph27.4 kmh 29.83 in1010.2 mb 0.00 in0.0 mm 0.00 in0.0 mm 0.01 in0.3 mm
07:05 AM 23.3°F-4.8°C 12.2°F-11.0°C 62% 4.0 mph NE6.4 kmh NE 17.0 mph27.4 kmh 29.83 in1010.2 mb 0.00 in0.0 mm 0.00 in0.0 mm 0.01 in0.3 mm
07:00 AM 23.1°F-4.9°C 13.8°F-10.1°C 67% Calm Calm 3.0 mph4.8 kmh 29.84 in1010.5 mb 0.00 in0.0 mm 0.00 in0.0 mm 0.01 in0.3 mm
06:55 AM 23.3°F-4.8°C 14.0°F-10.0°C 67% Calm Calm 1.0 mph1.6 kmh 29.84 in1010.5 mb 0.00 in0.0 mm 0.00 in0.0 mm 0.01 in0.3 mm
06:50 AM 23.4°F-4.8°C 13.4°F-10.3°C 65% 2.0 mph NW3.2 kmh NW 14.0 mph22.5 kmh 29.85 in1010.8 mb 0.00 in0.0 mm 0.00 in0.0 mm 0.01 in0.3 mm
06:45 AM 23.5°F-4.7°C 13.8°F-10.1°C 66% 2.0 mph W3.2 kmh W 12.0 mph19.3 kmh 29.84 in1010.5 mb 0.00 in0.0 mm 0.00 in0.0 mm 0.01 in0.3 mm
06:40 AM 23.8°F-4.6°C 13.1°F-10.5°C 63% 6.0 mph NW9.7 kmh NW 21.0 mph33.8 kmh 29.84 in1010.5 mb 0.00 in0.0 mm 0.00 in0.0 mm 0.01 in0.3 mm
06:35 AM 23.5°F-4.7°C 13.5°F-10.3°C 65% 6.0 mph NW9.7 kmh NW 19.0 mph30.6 kmh 29.84 in1010.5 mb 0.00 in0.0 mm 0.00 in0.0 mm 0.01 in0.3 mm
06:30 AM 23.8°F-4.6°C 13.1°F-10.5°C 63% 6.0 mph NW9.7 kmh NW 18.0 mph29.0 kmh 29.85 in1010.8 mb 0.00 in0.0 mm 0.00 in0.0 mm 0.01 in0.3 mm
06:25 AM 24.0°F-4.4°C 12.5°F-10.8°C 61% 6.0 mph NW9.7 kmh NW 17.0 mph27.4 kmh 29.85 in1010.8 mb 0.00 in0.0 mm 0.00 in0.0 mm 0.01 in0.3 mm
06:20 AM 24.4°F-4.2°C 11.4°F-11.4°C 57% 4.0 mph NW6.4 kmh NW 15.0 mph24.1 kmh 29.85 in1010.8 mb 0.00 in0.0 mm 0.00 in0.0 mm 0.01 in0.3 mm
06:15 AM 24.7°F-4.1°C 10.9°F-11.7°C 55% 5.0 mph NNW8.0 kmh NNW 16.0 mph25.7 kmh 29.85 in1010.8 mb 0.00 in0.0 mm 0.00 in0.0 mm 0.01 in0.3 mm
06:10 AM 24.8°F-4.0°C 11.0°F-11.7°C 55% 4.0 mph NNW6.4 kmh NNW 13.0 mph20.9 kmh 29.85 in1010.8 mb 0.00 in0.0 mm 0.00 in0.0 mm 0.01 in0.3 mm
06:05 AM 24.9°F-3.9°C 10.6°F-11.9°C 54% 5.0 mph NNW8.0 kmh NNW 19.0 mph30.6 kmh 29.85 in1010.8 mb 0.00 in0.0 mm 0.00 in0.0 mm 0.01 in0.3 mm
06:00 AM 25.1°F-3.8°C 10.8°F-11.8°C 54% 8.0 mph NNW12.9 kmh NNW 18.0 mph29.0 kmh 29.85 in1010.8 mb 0.00 in0.0 mm 0.00 in0.0 mm 0.01 in0.3 mm
05:55 AM 25.1°F-3.8°C 10.8°F-11.8°C 54% 11.0 mph 17.7 kmh 19.0 mph30.6 kmh 29.85 in1010.8 mb 0.00 in0.0 mm 0.00 in0.0 mm 0.01 in0.3 mm
05:50 AM 25.1°F-3.8°C 10.8°F-11.8°C 54% 11.0 mph NNW17.7 kmh NNW 21.0 mph33.8 kmh 29.84 in1010.5 mb 0.00 in0.0 mm 0.00 in0.0 mm 0.01 in0.3 mm
05:45 AM 25.1°F-3.8°C 10.4°F-12.0°C 53% 13.0 mph NNW20.9 kmh NNW 23.0 mph37.0 kmh 29.85 in1010.8 mb 0.00 in0.0 mm 0.00 in0.0 mm 0.01 in0.3 mm
05:40 AM 24.8°F-4.0°C 9.7°F-12.4°C 52% 9.0 mph NNW14.5 kmh NNW 26.0 mph41.8 kmh 29.85 in1010.8 mb 0.00 in0.0 mm 0.00 in0.0 mm 0.01 in0.3 mm
05:35 AM 24.9°F-3.9°C 9.8°F-12.3°C 52% 10.0 mph NNW16.1 kmh NNW 19.0 mph30.6 kmh 29.86 in1011.2 mb 0.00 in0.0 mm 0.00 in0.0 mm 0.01 in0.3 mm
05:30 AM 24.9°F-3.9°C 9.8°F-12.3°C 52% 12.0 mph NNW19.3 kmh NNW 22.0 mph35.4 kmh 29.86 in1011.2 mb 0.00 in0.0 mm 0.00 in0.0 mm 0.01 in0.3 mm
05:25 AM 24.9°F-3.9°C 9.4°F-12.6°C 51% 9.0 mph NW14.5 kmh NW 26.0 mph41.8 kmh 29.86 in1011.2 mb 0.00 in0.0 mm 0.00 in0.0 mm 0.01 in0.3 mm
05:20 AM 24.8°F-4.0°C 9.3°F-12.6°C 51% 11.0 mph NNW17.7 kmh NNW 25.0 mph40.2 kmh 29.86 in1011.2 mb 0.00 in0.0 mm 0.00 in0.0 mm 0.01 in0.3 mm
05:15 AM 24.6°F-4.1°C 9.1°F-12.7°C 51% 11.0 mph 17.7 kmh 21.0 mph33.8 kmh 29.87 in1011.5 mb 0.00 in0.0 mm 0.00 in0.0 mm 0.01 in0.3 mm
05:10 AM 24.3°F-4.3°C 9.7°F-12.4°C 53% 6.0 mph NNW9.7 kmh NNW 19.0 mph30.6 kmh 29.87 in1011.5 mb 0.00 in0.0 mm 0.00 in0.0 mm 0.01 in0.3 mm
05:05 AM 24.0°F-4.4°C 9.8°F-12.3°C 54% 6.0 mph NW9.7 kmh NW 19.0 mph30.6 kmh 29.87 in1011.5 mb 0.00 in0.0 mm 0.00 in0.0 mm 0.01 in0.3 mm
05:00 AM 23.6°F-4.7°C 10.6°F-11.9°C 57% 4.0 mph NNW6.4 kmh NNW 14.0 mph22.5 kmh 29.87 in1011.5 mb 0.00 in0.0 mm 0.00 in0.0 mm 0.01 in0.3 mm
04:55 AM 23.1°F-4.9°C 10.9°F-11.7°C 59% 3.0 mph NNW4.8 kmh NNW 14.0 mph22.5 kmh 29.87 in1011.5 mb 0.00 in0.0 mm 0.00 in0.0 mm 0.01 in0.3 mm
04:50 AM 22.8°F-5.1°C 11.0°F-11.7°C 60% Calm Calm 3.0 mph4.8 kmh 29.87 in1011.5 mb 0.00 in0.0 mm 0.00 in0.0 mm 0.01 in0.3 mm
04:45 AM 22.8°F-5.1°C 11.0°F-11.7°C 60% 3.0 mph WNW4.8 kmh WNW 11.0 mph17.7 kmh 29.87 in1011.5 mb 0.00 in0.0 mm 0.00 in0.0 mm 0.01 in0.3 mm
04:40 AM 22.5°F-5.3°C 11.1°F-11.6°C 61% Calm Calm 3.0 mph4.8 kmh 29.87 in1011.5 mb 0.00 in0.0 mm 0.00 in0.0 mm 0.01 in0.3 mm
04:35 AM 22.7°F-5.2°C 10.9°F-11.7°C 60% 1.0 mph 1.6 kmh 12.0 mph19.3 kmh 29.87 in1011.5 mb 0.00 in0.0 mm 0.00 in0.0 mm 0.01 in0.3 mm
04:30 AM 22.9°F-5.1°C 11.1°F-11.6°C 60% Calm Calm 9.0 mph14.5 kmh 29.87 in1011.5 mb 0.00 in0.0 mm 0.00 in0.0 mm 0.01 in0.3 mm
04:25 AM 23.1°F-4.9°C 10.9°F-11.7°C 59% Calm Calm 6.0 mph9.7 kmh 29.88 in1011.9 mb 0.00 in0.0 mm 0.00 in0.0 mm 0.01 in0.3 mm
04:20 AM 23.3°F-4.8°C 11.1°F-11.6°C 59% Calm Calm 1.0 mph1.6 kmh 29.88 in1011.9 mb 0.00 in0.0 mm 0.00 in0.0 mm 0.01 in0.3 mm
04:15 AM 23.4°F-4.8°C 11.2°F-11.6°C 59% 1.0 mph ENE1.6 kmh ENE 10.0 mph16.1 kmh 29.88 in1011.9 mb 0.00 in0.0 mm 0.00 in0.0 mm 0.01 in0.3 mm
04:10 AM 23.5°F-4.7°C 11.3°F-11.5°C 59% 4.0 mph ENE6.4 kmh ENE 14.0 mph22.5 kmh 29.89 in1012.2 mb 0.00 in0.0 mm 0.00 in0.0 mm 0.01 in0.3 mm
04:05 AM 23.8°F-4.6°C 11.6°F-11.3°C 59% 3.0 mph 4.8 kmh 19.0 mph30.6 kmh 29.89 in1012.2 mb 0.00 in0.0 mm 0.00 in0.0 mm 0.01 in0.3 mm
04:00 AM 24.0°F-4.4°C 11.4°F-11.4°C 58% 2.0 mph 3.2 kmh 13.0 mph20.9 kmh 29.90 in1012.5 mb 0.00 in0.0 mm 0.00 in0.0 mm 0.01 in0.3 mm
03:55 AM 24.3°F-4.3°C 11.3°F-11.5°C 57% 1.0 mph 1.6 kmh 11.0 mph17.7 kmh 29.90 in1012.5 mb 0.00 in0.0 mm 0.00 in0.0 mm 0.01 in0.3 mm
03:50 AM 24.4°F-4.2°C 11.4°F-11.4°C 57% 4.0 mph NNW6.4 kmh NNW 14.0 mph22.5 kmh 29.89 in1012.2 mb 0.00 in0.0 mm 0.00 in0.0 mm 0.01 in0.3 mm
03:45 AM 24.6°F-4.1°C 11.6°F-11.3°C 57% Calm Calm 9.0 mph14.5 kmh 29.89 in1012.2 mb 0.00 in0.0 mm 0.00 in0.0 mm 0.01 in0.3 mm
03:40 AM 24.7°F-4.1°C 11.3°F-11.5°C 56% 9.0 mph NE14.5 kmh NE 20.0 mph32.2 kmh 29.90 in1012.5 mb 0.00 in0.0 mm 0.00 in0.0 mm 0.01 in0.3 mm
03:35 AM 24.5°F-4.2°C 11.1°F-11.6°C 56% 4.0 mph NE6.4 kmh NE 15.0 mph24.1 kmh 29.89 in1012.2 mb 0.00 in0.0 mm 0.00 in0.0 mm 0.01 in0.3 mm
03:30 AM 24.6°F-4.1°C 11.2°F-11.6°C 56% 2.0 mph NNE3.2 kmh NNE 14.0 mph22.5 kmh 29.88 in1011.9 mb 0.00 in0.0 mm 0.00 in0.0 mm 0.01 in0.3 mm
03:25 AM 24.7°F-4.1°C 11.3°F-11.5°C 56% 2.0 mph NNE3.2 kmh NNE 13.0 mph20.9 kmh 29.88 in1011.9 mb 0.00 in0.0 mm 0.00 in0.0 mm 0.01 in0.3 mm
03:20 AM 24.6°F-4.1°C 10.8°F-11.8°C 55% 1.0 mph NE1.6 kmh NE 9.0 mph14.5 kmh 29.88 in1011.9 mb 0.00 in0.0 mm 0.00 in0.0 mm 0.01 in0.3 mm
03:15 AM 24.9°F-3.9°C 11.0°F-11.7°C 55% Calm Calm 1.0 mph1.6 kmh 29.87 in1011.5 mb 0.00 in0.0 mm 0.00 in0.0 mm 0.01 in0.3 mm
03:10 AM 25.2°F-3.8°C 11.3°F-11.5°C 55% 1.0 mph NW1.6 kmh NW 9.0 mph14.5 kmh 29.87 in1011.5 mb 0.00 in0.0 mm 0.00 in0.0 mm 0.01 in0.3 mm
03:05 AM 25.4°F-3.7°C 11.1°F-11.6°C 54% 6.0 mph ENE9.7 kmh ENE 24.0 mph38.6 kmh 29.87 in1011.5 mb 0.00 in0.0 mm 0.00 in0.0 mm 0.01 in0.3 mm
03:00 AM 25.6°F-3.6°C 10.9°F-11.7°C 53% 2.0 mph NE3.2 kmh NE 13.0 mph20.9 kmh 29.87 in1011.5 mb 0.00 in0.0 mm 0.00 in0.0 mm 0.01 in0.3 mm
02:55 AM 25.4°F-3.7°C 11.5°F-11.4°C 55% 5.0 mph NNW8.0 kmh NNW 16.0 mph25.7 kmh 29.87 in1011.5 mb 0.00 in0.0 mm 0.00 in0.0 mm 0.01 in0.3 mm
02:50 AM 25.5°F-3.6°C 11.6°F-11.3°C 55% 3.0 mph NW4.8 kmh NW 14.0 mph22.5 kmh 29.86 in1011.2 mb 0.00 in0.0 mm 0.00 in0.0 mm 0.01 in0.3 mm
02:45 AM 25.5°F-3.6°C 11.6°F-11.3°C 55% 3.0 mph NW4.8 kmh NW 14.0 mph22.5 kmh 29.86 in1011.2 mb 0.00 in0.0 mm 0.00 in0.0 mm 0.01 in0.3 mm
02:40 AM 25.7°F-3.5°C 11.8°F-11.2°C 55% 11.0 mph NNW17.7 kmh NNW 22.0 mph35.4 kmh 29.88 in1011.9 mb 0.00 in0.0 mm 0.00 in0.0 mm 0.01 in0.3 mm
02:35 AM 25.6°F-3.6°C 11.7°F-11.3°C 55% 14.0 mph NNE22.5 kmh NNE 27.0 mph43.5 kmh 29.87 in1011.5 mb 0.00 in0.0 mm 0.00 in0.0 mm 0.01 in0.3 mm
02:30 AM 25.2°F-3.8°C 11.7°F-11.3°C 56% 5.0 mph 8.0 kmh 17.0 mph27.4 kmh 29.88 in1011.9 mb 0.00 in0.0 mm 0.00 in0.0 mm 0.01 in0.3 mm
02:25 AM 25.2°F-3.8°C 11.7°F-11.3°C 56% 7.0 mph NNE11.3 kmh NNE 14.0 mph22.5 kmh 29.87 in1011.5 mb 0.00 in0.0 mm 0.00 in0.0 mm 0.01 in0.3 mm
02:20 AM 25.3°F-3.7°C 11.8°F-11.2°C 56% 4.0 mph 6.4 kmh 13.0 mph20.9 kmh 29.88 in1011.9 mb 0.00 in0.0 mm 0.00 in0.0 mm 0.01 in0.3 mm
02:15 AM 25.5°F-3.6°C 12.0°F-11.1°C 56% 10.0 mph NNE16.1 kmh NNE 22.0 mph35.4 kmh 29.89 in1012.2 mb 0.00 in0.0 mm 0.00 in0.0 mm 0.01 in0.3 mm
02:10 AM 25.3°F-3.7°C 11.8°F-11.2°C 56% 9.0 mph 14.5 kmh 16.0 mph25.7 kmh 29.88 in1011.9 mb 0.00 in0.0 mm 0.00 in0.0 mm 0.01 in0.3 mm
02:05 AM 26.0°F-3.3°C 11.7°F-11.3°C 54% 9.0 mph 14.5 kmh 17.0 mph27.4 kmh 29.88 in1011.9 mb 0.00 in0.0 mm 0.00 in0.0 mm 0.01 in0.3 mm
02:00 AM 26.9°F-2.8°C 12.1°F-11.1°C 53% 8.0 mph 12.9 kmh 33.0 mph53.1 kmh 29.89 in1012.2 mb 0.00 in0.0 mm 0.00 in0.0 mm 0.01 in0.3 mm
01:55 AM 26.7°F-2.9°C 12.3°F-10.9°C 54% 11.0 mph NNW17.7 kmh NNW 31.0 mph49.9 kmh 29.89 in1012.2 mb 0.00 in0.0 mm 0.00 in0.0 mm 0.01 in0.3 mm
01:50 AM 25.8°F-3.4°C 11.9°F-11.2°C 55% 16.0 mph 25.7 kmh 30.0 mph48.3 kmh 29.88 in1011.9 mb 0.00 in0.0 mm 0.00 in0.0 mm 0.01 in0.3 mm
01:45 AM 25.2°F-3.8°C 11.3°F-11.5°C 55% 15.0 mph 24.1 kmh 38.0 mph61.2 kmh 29.88 in1011.9 mb 0.00 in0.0 mm 0.00 in0.0 mm 0.01 in0.3 mm
01:40 AM 24.6°F-4.1°C 10.8°F-11.8°C 55% 13.0 mph NNE20.9 kmh NNE 25.0 mph40.2 kmh 29.88 in1011.9 mb 0.00 in0.0 mm 0.00 in0.0 mm 0.01 in0.3 mm
01:35 AM 25.1°F-3.8°C 11.2°F-11.6°C 55% 16.0 mph NNE25.7 kmh NNE 35.0 mph56.3 kmh 29.87 in1011.5 mb 0.00 in0.0 mm 0.00 in0.0 mm 0.01 in0.3 mm
01:30 AM 25.2°F-3.8°C 11.3°F-11.5°C 55% 18.0 mph 29.0 kmh 30.0 mph48.3 kmh 29.86 in1011.2 mb 0.00 in0.0 mm 0.00 in0.0 mm 0.01 in0.3 mm
01:25 AM 25.0°F-3.9°C 10.7°F-11.8°C 54% 17.0 mph 27.4 kmh 35.0 mph56.3 kmh 29.87 in1011.5 mb 0.00 in0.0 mm 0.00 in0.0 mm 0.01 in0.3 mm
01:20 AM 24.9°F-3.9°C 10.2°F-12.1°C 53% 19.0 mph NNE30.6 kmh NNE 35.0 mph56.3 kmh 29.86 in1011.2 mb 0.00 in0.0 mm 0.00 in0.0 mm 0.01 in0.3 mm
01:15 AM 24.9°F-3.9°C 9.8°F-12.3°C 52% 20.0 mph NNE32.2 kmh NNE 40.0 mph64.4 kmh 29.86 in1011.2 mb 0.00 in0.0 mm 0.00 in0.0 mm 0.01 in0.3 mm
01:10 AM 25.1°F-3.8°C 10.8°F-11.8°C 54% 16.0 mph NNE25.7 kmh NNE 37.0 mph59.5 kmh 29.86 in1011.2 mb 0.00 in0.0 mm 0.00 in0.0 mm 0.01 in0.3 mm
01:05 AM 25.1°F-3.8°C 10.8°F-11.8°C 54% 13.0 mph 20.9 kmh 29.0 mph46.7 kmh 29.87 in1011.5 mb 0.00 in0.0 mm 0.00 in0.0 mm 0.01 in0.3 mm
01:00 AM 25.0°F-3.9°C 11.1°F-11.6°C 55% 20.0 mph NNW32.2 kmh NNW 40.0 mph64.4 kmh 29.87 in1011.5 mb 0.00 in0.0 mm 0.00 in0.0 mm 0.01 in0.3 mm
12:55 AM 24.4°F-4.2°C 10.2°F-12.1°C 54% 16.0 mph NE25.7 kmh NE 41.0 mph66.0 kmh 29.89 in1012.2 mb 0.00 in0.0 mm 0.00 in0.0 mm 0.01 in0.3 mm
12:50 AM 24.4°F-4.2°C 10.2°F-12.1°C 54% 16.0 mph NNE25.7 kmh NNE 41.0 mph66.0 kmh 29.88 in1011.9 mb 0.00 in0.0 mm 0.00 in0.0 mm 0.01 in0.3 mm
12:45 AM 24.4°F-4.2°C 10.6°F-11.9°C 55% 18.0 mph NNE29.0 kmh NNE 41.0 mph66.0 kmh 29.88 in1011.9 mb 0.00 in0.0 mm 0.00 in0.0 mm 0.01 in0.3 mm
12:40 AM 24.1°F-4.4°C 10.7°F-11.8°C 56% 11.0 mph NNE17.7 kmh NNE 26.0 mph41.8 kmh 29.89 in1012.2 mb 0.00 in0.0 mm 0.00 in0.0 mm 0.01 in0.3 mm
12:35 AM 24.1°F-4.4°C 10.7°F-11.8°C 56% 12.0 mph 19.3 kmh 29.0 mph46.7 kmh 29.90 in1012.5 mb 0.00 in0.0 mm 0.00 in0.0 mm 0.01 in0.3 mm
12:30 AM 24.1°F-4.4°C 10.7°F-11.8°C 56% 12.0 mph NNE19.3 kmh NNE 31.0 mph49.9 kmh 29.89 in1012.2 mb 0.00 in0.0 mm 0.00 in0.0 mm 0.01 in0.3 mm
12:25 AM 23.9°F-4.5°C 10.5°F-11.9°C 56% 10.0 mph NW16.1 kmh NW 27.0 mph43.5 kmh 29.90 in1012.5 mb 0.00 in0.0 mm 0.00 in0.0 mm 0.01 in0.3 mm
12:20 AM 23.7°F-4.6°C 10.3°F-12.1°C 56% 9.0 mph 14.5 kmh 18.0 mph29.0 kmh 29.91 in1012.9 mb 0.00 in0.0 mm 0.00 in0.0 mm 0.01 in0.3 mm
12:15 AM 23.8°F-4.6°C 9.6°F-12.4°C 54% 11.0 mph 17.7 kmh 31.0 mph49.9 kmh 29.92 in1013.2 mb 0.00 in0.0 mm 0.00 in0.0 mm 0.01 in0.3 mm
12:10 AM 23.8°F-4.6°C 10.0°F-12.2°C 55% 13.0 mph NNW20.9 kmh NNW 34.0 mph54.7 kmh 29.92 in1013.2 mb 0.00 in0.0 mm 0.00 in0.0 mm 0.01 in0.3 mm
12:05 AM 23.6°F-4.7°C 9.4°F-12.6°C 54% 11.0 mph NNW17.7 kmh NNW 32.0 mph51.5 kmh 29.92 in1013.2 mb 0.00 in0.0 mm 0.00 in0.0 mm 0.01 in0.3 mm
12:00 AM 23.4°F-4.8°C 9.2°F-12.7°C 54% 8.0 mph NW12.9 kmh NW 22.0 mph35.4 kmh 29.93 in1013.5 mb 0.01 in0.3 mm 0.00 in0.0 mm 0.07 in1.8 mm